sensor_id;sensor_type;location;lat;lon;timestamp;pressure;altitude;pressure_sealevel;temperature
77385;BMP280;66444;49.680;18.538;2023-02-22T00:04:09;97489.65511590306;;;7.72877098871395
77385;BMP280;66444;49.680;18.538;2023-02-22T00:09:16;97475.3243866767;;;7.73895169342868
77385;BMP280;66444;49.680;18.538;2023-02-22T00:14:22;97483.08823744411;;;7.789854867756366
77385;BMP280;66444;49.680;18.538;2023-02-22T00:19:29;97482.17180377422;;;7.749132374860347
77385;BMP280;66444;49.680;18.538;2023-02-22T00:24:36;97490.92512460733;;;7.667686271481216
77385;BMP280;66444;49.680;18.538;2023-02-22T00:29:43;97487.10153250262;;;7.469155151722953
77385;BMP280;66444;49.680;18.538;2023-02-22T00:34:51;97477.34326750266;;;7.301160366088152
77385;BMP280;66444;49.680;18.538;2023-02-22T00:39:59;97476.7522178164;;;7.158614364918321
77385;BMP280;66444;49.680;18.538;2023-02-22T00:45:06;97474.5987345225;;;7.005881442455575
77385;BMP280;66444;49.680;18.538;2023-02-22T00:50:14;97472.7483584976;;;6.837869177060202
77385;BMP280;66444;49.680;18.538;2023-02-22T00:55:23;97482.85764714645;;;6.730948980525136
77385;BMP280;66444;49.680;18.538;2023-02-22T01:00:32;97477.41395286171;;;6.608751326985657
77385;BMP280;66444;49.680;18.538;2023-02-22T01:05:41;97481.44679760118;;;6.496733865933493
77385;BMP280;66444;49.680;18.538;2023-02-22T01:10:49;97484.08872246699;;;6.496733865933493
77385;BMP280;66444;49.680;18.538;2023-02-22T01:15:55;97483.93803842556;;;6.547651242930442
77385;BMP280;66444;49.680;18.538;2023-02-22T01:21:03;97479.27296297134;;;6.517100886581465
77385;BMP280;66444;49.680;18.538;2023-02-22T01:26:11;97473.98894854139;;;6.517100886581465
77385;BMP280;66444;49.680;18.538;2023-02-22T01:31:17;97473.36947453607;;;6.547651242930442
77385;BMP280;66444;49.680;18.538;2023-02-22T01:36:24;97472.74954181578;;;6.57820138973184
77385;BMP280;66444;49.680;18.538;2023-02-22T01:41:31;97474.61763740204;;;6.659667423414066
77385;BMP280;66444;49.680;18.538;2023-02-22T01:46:38;97479.7482821515;;;6.710582937765866
77385;BMP280;66444;49.680;18.538;2023-02-22T01:51:46;97477.88275319902;;;6.715674457186833
77385;BMP280;66444;49.680;18.538;2023-02-22T01:56:57;97468.55449538433;;;6.741131966980174
77385;BMP280;66444;49.680;18.538;2023-02-22T02:02:10;97465.13024281888;;;6.822595020430162
77385;BMP280;66444;49.680;18.538;2023-02-22T02:07:20;97458.59424126388;;;6.883691332628951
77385;BMP280;66444;49.680;18.538;2023-02-22T02:12:31;97463.24535292423;;;7.000790254818275
77385;BMP280;66444;49.680;18.538;2023-02-22T02:17:40;97461.84166470465;;;7.026246134797111
77385;BMP280;66444;49.680;18.538;2023-02-22T02:22:48;97468.38257798275;;;6.96515177837573
77385;BMP280;66444;49.680;18.538;2023-02-22T02:30:20;97460.1376294239;;;6.9804254460614175
77385;BMP280;66444;49.680;18.538;2023-02-22T02:37:50;97452.81853690105;;;7.036428446043283
77385;BMP280;66444;49.680;18.538;2023-02-22T02:43:05;97458.40504536332;;;7.107703972840682
77385;BMP280;66444;49.680;18.538;2023-02-22T02:48:20;97455.13184693798;;;7.138250277936459
77385;BMP280;66444;49.680;18.538;2023-02-22T02:53:33;97456.68533516648;;;7.148432333068922
77385;BMP280;66444;49.680;18.538;2023-02-22T02:58:44;97451.39590881125;;;7.148432333068922
77385;BMP280;66444;49.680;18.538;2023-02-22T03:03:57;97456.68533516648;;;7.148432333068922
77385;BMP280;66444;49.680;18.538;2023-02-22T03:09:22;97460.88359396823;;;7.158614364918321
77385;BMP280;66444;49.680;18.538;2023-02-22T03:14:41;97460.88359396823;;;7.158614364918321
77385;BMP280;66444;49.680;18.538;2023-02-22T03:20:00;97461.0312171478;;;7.1942512930370865
77385;BMP280;66444;49.680;18.538;2023-02-22T03:25:16;97466.8015212007;;;7.12806819952093
77385;BMP280;66444;49.680;18.538;2023-02-22T03:30:30;97475.82620785061;;;7.117886097822338
77385;BMP280;66444;49.680;18.538;2023-02-22T03:35:42;97470.53701046706;;;7.117886097822338
77385;BMP280;66444;49.680;18.538;2023-02-22T03:40:55;97471.46266688255;;;7.158614364918321
77385;BMP280;66444;49.680;18.538;2023-02-22T03:46:06;97470.37158161627;;;7.168796373484656
77385;BMP280;66444;49.680;18.538;2023-02-22T03:51:15;97475.19840340996;;;7.148432333068922
77385;BMP280;66444;49.680;18.538;2023-02-22T03:56:24;97477.67764505258;;;7.199342259485275
77385;BMP280;66444;49.680;18.538;2023-02-22T04:01:35;97481.70991406191;;;7.260433402843773
77385;BMP280;66444;49.680;18.538;2023-02-22T04:06:45;97478.89684416498;;;7.311342048691586
77385;BMP280;66444;49.680;18.538;2023-02-22T04:11:52;97486.51824506423;;;7.326614528940991
77385;BMP280;66444;49.680;18.538;2023-02-22T04:16:59;97489.47862189329;;;7.311342048691586
77385;BMP280;66444;49.680;18.538;2023-02-22T04:22:06;97484.18772820116;;;7.311342048691586
77385;BMP280;66444;49.680;18.538;2023-02-22T04:27:13;97484.04050447517;;;7.275706057716161
77385;BMP280;66444;49.680;18.538;2023-02-22T04:32:20;97490.10800305162;;;7.280796931032091
77385;BMP280;66444;49.680;18.538;2023-02-22T04:37:27;97484.81737212537;;;7.280796931032091
77385;BMP280;66444;49.680;18.538;2023-02-22T04:42:34;97489.01647335282;;;7.290978660201654
77385;BMP280;66444;49.680;18.538;2023-02-22T04:47:47;97488.55417903436;;;7.270615178579464
77385;BMP280;66444;49.680;18.538;2023-02-22T04:52:54;97487.00036337602;;;7.260433402843773
77385;BMP280;66444;49.680;18.538;2023-02-22T04:58:02;97484.81737212537;;;7.280796931032091
77385;BMP280;66444;49.680;18.538;2023-02-22T05:03:07;97486.3711136932;;;7.290978660201654
77385;BMP280;66444;49.680;18.538;2023-02-22T05:08:11;97482.80137561713;;;7.250251603825018
77385;BMP280;66444;49.680;18.538;2023-02-22T05:13:16;97490.10800305162;;;7.280796931032091
77385;BMP280;66444;49.680;18.538;2023-02-22T05:18:21;97482.17206028287;;;7.280796931032091
77385;BMP280;66444;49.680;18.538;2023-02-22T05:23:25;97492.29082234448;;;7.260433402843773
77385;BMP280;66444;49.680;18.538;2023-02-22T05:28:30;97496.65550056942;;;7.219706067070365
77385;BMP280;66444;49.680;18.538;2023-02-22T05:33:35;97491.99338692485;;;7.189160320768133
77385;BMP280;66444;49.680;18.538;2023-02-22T05:38:40;97496.81986267789;;;7.168796373484656
77385;BMP280;66444;49.680;18.538;2023-02-22T05:43:44;97504.75439404727;;;7.168796373484656
77385;BMP280;66444;49.680;18.538;2023-02-22T05:48:49;97500.39148822082;;;7.209524174919352
77385;BMP280;66444;49.680;18.538;2023-02-22T05:53:54;97519.99722845532;;;7.199342259485275
77385;BMP280;66444;49.680;18.538;2023-02-22T05:58:59;97519.99722845532;;;7.199342259485275
77385;BMP280;66444;49.680;18.538;2023-02-22T06:04:03;97526.69057367863;;;7.173887369036675
77385;BMP280;66444;49.680;18.538;2023-02-22T06:09:08;97521.5517203615;;;7.209524174919352
77385;BMP280;66444;49.680;18.538;2023-02-22T06:14:13;97530.10157545838;;;7.265524293622002
77385;BMP280;66444;49.680;18.538;2023-02-22T06:19:23;97534.61484164886;;;7.260433402843773
77385;BMP280;66444;49.680;18.538;2023-02-22T06:24:28;97540.83342352319;;;7.301160366088152
77385;BMP280;66444;49.680;18.538;2023-02-22T06:29:33;97539.57866809423;;;7.362250112462789
77385;BMP280;66444;49.680;18.538;2023-02-22T06:34:38;97552.49362492294;;;7.377522418089211
77385;BMP280;66444;49.680;18.538;2023-02-22T06:39:43;97555.9168049756;;;7.382613174989819
77385;BMP280;66444;49.680;18.538;2023-02-22T06:44:48;97558.56262398192;;;7.382613174989819
77385;BMP280;66444;49.680;18.538;2023-02-22T06:49:53;97561.67228031864;;;7.402976144384593
77385;BMP280;66444;49.680;18.538;2023-02-22T06:54:58;97569.44656714045;;;7.4538831604179
77385;BMP280;66444;49.680;18.538;2023-02-22T07:00:04;97567.26388727852;;;7.474245803849771
77385;BMP280;66444;49.680;18.538;2023-02-22T07:05:10;97578.7759863773;;;7.5149708113167435
77385;BMP280;66444;49.680;18.538;2023-02-22T07:10:16;97578.92515193338;;;7.550604887260124
77385;BMP280;66444;49.680;18.538;2023-02-22T07:15:24;97576.88980520827;;;7.606600716058165
77385;BMP280;66444;49.680;18.538;2023-02-22T07:20:30;97581.72051326775;;;7.586238677985966
77385;BMP280;66444;49.680;18.538;2023-02-22T07:25:35;97578.27711749135;;;7.667686271481216
77385;BMP280;66444;49.680;18.538;2023-02-22T07:30:40;97579.36950322155;;;7.657505403785035
77385;BMP280;66444;49.680;18.538;2023-02-22T07:35:47;97578.73926286509;;;7.688047937024384
77385;BMP280;66444;49.680;18.538;2023-02-22T07:40:53;97574.22221425347;;;7.693138338858262
77385;BMP280;66444;49.680;18.538;2023-02-22T07:45:59;97578.4001994227;;;7.789854867756366
77385;BMP280;66444;49.680;18.538;2023-02-22T07:51:04;97578.51696219257;;;7.912020111270249
77385;BMP280;66444;49.680;18.538;2023-02-22T07:56:09;97575.37740613888;;;7.9781915516126904
77385;BMP280;66444;49.680;18.538;2023-02-22T08:01:15;97575.80194012234;;;8.085081800306217
77385;BMP280;66444;49.680;18.538;2023-02-22T08:06:19;97571.6998684647;;;8.197059307619929
77385;BMP280;66444;49.680;18.538;2023-02-22T08:11:24;97576.63681973077;;;8.298854596819728
77385;BMP280;66444;49.680;18.538;2023-02-22T08:16:30;97571.74664796001;;;8.405737144639716
77385;BMP280;66444;49.680;18.538;2023-02-22T08:21:35;97577.26554142582;;;8.563511452265084
77385;BMP280;66444;49.680;18.538;2023-02-22T08:26:43;97569.19574696099;;;8.736547809327021
77385;BMP280;66444;49.680;18.538;2023-02-22T08:31:49;97569.71382457216;;;8.879043286247178
77385;BMP280;66444;49.680;18.538;2023-02-22T08:36:54;97571.52188270421;;;8.960467224149033
77385;BMP280;66444;49.680;18.538;2023-02-22T08:41:59;97572.67755277609;;;9.072422705683858
77385;BMP280;66444;49.680;18.538;2023-02-22T08:47:04;97569.17286795452;;;9.153843104559929
77385;BMP280;66444;49.680;18.538;2023-02-22T08:52:10;97570.97209947876;;;9.235262013319879
77385;BMP280;66444;49.680;18.538;2023-02-22T08:57:15;97578.32106818339;;;9.387918450916185
77385;BMP280;66444;49.680;18.538;2023-02-22T09:02:21;97575.45987156554;;;9.438802765961736
77385;BMP280;66444;49.680;18.538;2023-02-22T09:07:26;97576.475223646;;;9.51512814713642
77385;BMP280;66444;49.680;18.538;2023-02-22T09:12:30;97572.59709595249;;;9.489686498930677
77385;BMP280;66444;49.680;18.538;2023-02-22T09:17:35;97566.630558602;;;9.52021645931527
77385;BMP280;66444;49.680;18.538;2023-02-22T09:22:40;97571.09415741425;;;9.723744173441082
77385;BMP280;66444;49.680;18.538;2023-02-22T09:27:49;97576.09115906434;;;9.861120115593076
77385;BMP280;66444;49.680;18.538;2023-02-22T09:32:57;97586.50897624808;;;10.034106006613001
77385;BMP280;66444;49.680;18.538;2023-02-22T09:38:04;97579.09143662552;;;10.090070589538664
77385;BMP280;66444;49.680;18.538;2023-02-22T09:43:14;97574.10858588979;;;10.07480759131722
77385;BMP280;66444;49.680;18.538;2023-02-22T09:48:28;97574.10543597995;;;10.196910110255704
77385;BMP280;66444;49.680;18.538;2023-02-22T09:53:39;97567.45580314232;;;10.257960112439468
77385;BMP280;66444;49.680;18.538;2023-02-22T09:58:49;97564.24833519886;;;10.201997642451897
77385;BMP280;66444;49.680;18.538;2023-02-22T10:03:59;97567.79063671584;;;9.876383847231045
77385;BMP280;66444;49.680;18.538;2023-02-22T10:09:13;97558.48806361249;;;9.815328606357799
77385;BMP280;66444;49.680;18.538;2023-02-22T10:14:30;97559.37671117176;;;9.856032193405554
77385;BMP280;66444;49.680;18.538;2023-02-22T10:19:50;97557.3826041263;;;10.191822572238744
77385;BMP280;66444;49.680;18.538;2023-02-22T10:25:08;97559.25374885171;;;10.308834473975002
77385;BMP280;66444;49.680;18.538;2023-02-22T10:30:18;97560.1345623828;;;10.349533544108272
77385;BMP280;66444;49.680;18.538;2023-02-22T10:35:32;97555.80178381003;;;10.425843296526
77385;BMP280;66444;49.680;18.538;2023-02-22T10:40:40;97558.37234326842;;;10.268135031312704
77385;BMP280;66444;49.680;18.538;2023-02-22T10:45:51;97552.0748249808;;;9.947613902203738
77385;BMP280;66444;49.680;18.538;2023-02-22T10:51:00;97553.18150397415;;;10.059544540708885
77385;BMP280;66444;49.680;18.538;2023-02-22T10:56:10;97554.51093116193;;;9.998491814406588
77385;BMP280;66444;49.680;18.538;2023-02-22T11:01:18;97545.86831220672;;;10.151122058555483
77385;BMP280;66444;49.680;18.538;2023-02-22T11:06:32;97542.06778591179;;;10.405494157271459
77385;BMP280;66444;49.680;18.538;2023-02-22T11:11:38;97535.13940010268;;;10.639503635838627
77385;BMP280;66444;49.680;18.538;2023-02-22T11:16:46;97533.39164607781;;;11.117658617487177
77385;BMP280;66444;49.680;18.538;2023-02-22T11:21:55;97525.35651008303;;;11.555074505414813
77385;BMP280;66444;49.680;18.538;2023-02-22T11:27:03;97525.33201049094;;;11.870394137548283
77385;BMP280;66444;49.680;18.538;2023-02-22T11:32:11;97517.960721222;;;11.331285708583891
77385;BMP280;66444;49.680;18.538;2023-02-22T11:37:29;97523.33249248048;;;11.051533865509555
77385;BMP280;66444;49.680;18.538;2023-02-22T11:42:36;97520.48395155516;;;10.980321494024247
77385;BMP280;66444;49.680;18.538;2023-02-22T11:47:50;97522.74385273029;;;11.117658617487177
77385;BMP280;66444;49.680;18.538;2023-02-22T11:53:01;97511.63237242824;;;10.93962819809094
77385;BMP280;66444;49.680;18.538;2023-02-22T11:58:23;97518.96728888038;;;11.127831568941474
77385;BMP280;66444;49.680;18.538;2023-02-22T12:03:42;97515.12133399917;;;10.822632897179574
77385;BMP280;66444;49.680;18.538;2023-02-22T12:09:22;97514.82115568554;;;10.995581383956596
77385;BMP280;66444;49.680;18.538;2023-02-22T12:14:41;97503.1210032592;;;10.883674307912589
77385;BMP280;66444;49.680;18.538;2023-02-22T12:19:56;97513.80013381972;;;11.041360739432275
77385;BMP280;66444;49.680;18.538;2023-02-22T12:25:19;97498.11219077048;;;11.621191766066477
77385;BMP280;66444;49.680;18.538;2023-02-22T12:30:30;97495.20648893323;;;12.02296012043953
77385;BMP280;66444;49.680;18.538;2023-02-22T12:35:39;97498.59922197797;;;12.185691394656896
77385;BMP280;66444;49.680;18.538;2023-02-22T12:40:53;97489.62441431731;;;12.2670547965914
77385;BMP280;66444;49.680;18.538;2023-02-22T12:46:10;97489.62441431731;;;12.2670547965914
77385;BMP280;66444;49.680;18.538;2023-02-22T12:51:24;97488.28227112134;;;12.170435590902343
77385;BMP280;66444;49.680;18.538;2023-02-22T12:56:35;97476.42104701008;;;12.1450091348961
77385;BMP280;66444;49.680;18.538;2023-02-22T13:01:48;97473.33162622272;;;12.124667865317315
77385;BMP280;66444;49.680;18.538;2023-02-22T13:07:00;97476.27235670164;;;12.073814283916727
77385;BMP280;66444;49.680;18.538;2023-02-22T13:12:15;97484.38982374505;;;11.95176331368275
77385;BMP280;66444;49.680;18.538;2023-02-22T13:17:26;97477.28040470158;;;11.834794654417783
77385;BMP280;66444;49.680;18.538;2023-02-22T13:22:40;97474.7439854564;;;11.555074505414813
77385;BMP280;66444;49.680;18.538;2023-02-22T13:27:51;97476.34950734186;;;11.758509087283164
77385;BMP280;66444;49.680;18.538;2023-02-22T13:33:08;97477.65376332264;;;11.661878822138533
77385;BMP280;66444;49.680;18.538;2023-02-22T13:40:46;97478.95360923998;;;11.565246455697343
77385;BMP280;66444;49.680;18.538;2023-02-22T13:46:10;97481.51968870214;;;11.056620419817046
77385;BMP280;66444;49.680;18.538;2023-02-22T13:51:44;97474.09819727941;;;10.832806523842738
77385;BMP280;66444;49.680;18.538;2023-02-22T13:56:54;97475.7018063497;;;10.7208953499794
77385;BMP280;66444;49.680;18.538;2023-02-22T14:02:01;97476.42832184152;;;10.568284663604572
77385;BMP280;66444;49.680;18.538;2023-02-22T14:07:46;97477.9184727489;;;10.420756020443514
77385;BMP280;66444;49.680;18.538;2023-02-22T14:12:54;97470.91356366243;;;10.497064550500363
77385;BMP280;66444;49.680;18.538;2023-02-22T14:18:15;97479.90324503864;;;10.451279589626939
77385;BMP280;66444;49.680;18.538;2023-02-22T14:23:31;97481.45114604381;;;10.46145406612195
77385;BMP280;66444;49.680;18.538;2023-02-22T14:28:41;97482.69824154749;;;10.364795599365607
77385;BMP280;66444;49.680;18.538;2023-02-22T14:33:57;97480.4769925636;;;10.385144924884662
77385;BMP280;66444;49.680;18.538;2023-02-22T14:39:10;97481.61850566784;;;10.2528726442717
77385;BMP280;66444;49.680;18.538;2023-02-22T14:44:50;97481.3848967721;;;10.303747064014896
77385;BMP280;66444;49.680;18.538;2023-02-22T14:50:03;97472.26351149833;;;10.436017831228673
77385;BMP280;66444;49.680;18.538;2023-02-22T14:55:17;97482.79904350321;;;10.40040685790591
77385;BMP280;66444;49.680;18.538;2023-02-22T15:00:28;97486.05734836294;;;10.212172689381987
77385;BMP280;66444;49.680;18.538;2023-02-22T15:05:42;97479.19302848147;;;10.201997642451897
77385;BMP280;66444;49.680;18.538;2023-02-22T15:10:49;97483.06390672135;;;10.227435216121375
77385;BMP280;66444;49.680;18.538;2023-02-22T15:15:56;97474.75399202648;;;10.24269769047387
77385;BMP280;66444;49.680;18.538;2023-02-22T15:21:04;97470.1094541679;;;10.212172689381987
77385;BMP280;66444;49.680;18.538;2023-02-22T15:26:16;97487.18755774845;;;10.079895263211801
77385;BMP280;66444;49.680;18.538;2023-02-22T15:31:28;97482.32881052002;;;9.978140719374641
77385;BMP280;66444;49.680;18.538;2023-02-22T15:36:36;97475.58516031393;;;9.881471746135503
77385;BMP280;66444;49.680;18.538;2023-02-22T15:41:41;97467.01313488228;;;10.191822572238744
77385;BMP280;66444;49.680;18.538;2023-02-22T15:46:47;97465.79025221568;;;10.568284663604572
77385;BMP280;66444;49.680;18.538;2023-02-22T15:52:00;97455.43903860833;;;10.675112694129348
77385;BMP280;66444;49.680;18.538;2023-02-22T15:57:12;97460.65527320889;;;10.359708253433928
77385;BMP280;66444;49.680;18.538;2023-02-22T16:02:29;97465.85067435105;;;9.800064665172249
77385;BMP280;66444;49.680;18.538;2023-02-22T16:07:41;97465.16910663039;;;9.34212206969969
77385;BMP280;66444;49.680;18.538;2023-02-22T16:13:04;97476.92474342516;;;9.001178634306417
77385;BMP280;66444;49.680;18.538;2023-02-22T16:18:30;97481.69155950403;;;8.736547809327021
77385;BMP280;66444;49.680;18.538;2023-02-22T16:23:49;97481.63694933298;;;8.614405196951703
77385;BMP280;66444;49.680;18.538;2023-02-22T16:29:00;97483.12749608063;;;8.502438190300017
77385;BMP280;66444;49.680;18.538;2023-02-22T16:34:13;97491.2009684141;;;8.329392729559913
77385;BMP280;66444;49.680;18.538;2023-02-22T16:39:21;97484.45944372457;;;8.146160789905116
77385;BMP280;66444;49.680;18.538;2023-02-22T16:44:28;97496.7025547192;;;7.9832816216629
77385;BMP280;66444;49.680;18.538;2023-02-22T16:49:34;97487.1095691923;;;7.850937908608467
77385;BMP280;66444;49.680;18.538;2023-02-22T16:54:42;97498.69095612099;;;7.718590260716155
77385;BMP280;66444;49.680;18.538;2023-02-22T16:59:49;97495.93338633262;;;7.596419708663598
77385;BMP280;66444;49.680;18.538;2023-02-22T17:04:55;97488.50999999292;;;7.443701803777367
77385;BMP280;66444;49.680;18.538;2023-02-22T17:10:28;97495.39864363286;;;7.280796931032091
77385;BMP280;66444;49.680;18.538;2023-02-22T17:15:42;97492.32041439888;;;7.087339653028176
77385;BMP280;66444;49.680;18.538;2023-02-22T17:20:48;97491.71310881378;;;6.944786806637421
77385;BMP280;66444;49.680;18.538;2023-02-22T17:25:54;97493.89613811398;;;6.751314930152148
77385;BMP280;66444;49.680;18.538;2023-02-22T17:31:00;97487.35772810974;;;6.552742948615924
77385;BMP280;66444;49.680;18.538;2023-02-22T17:36:06;97488.26104872487;;;6.333794347988442
77385;BMP280;66444;49.680;18.538;2023-02-22T17:41:12;97486.95013696974;;;6.048635849216953
77385;BMP280;66444;49.680;18.538;2023-02-22T17:46:18;97493.45277505268;;;5.987528081750497
77385;BMP280;66444;49.680;18.538;2023-02-22T17:51:24;97493.8954238074;;;5.9213270544540135
77385;BMP280;66444;49.680;18.538;2023-02-22T17:56:34;97482.55956683225;;;5.916234626993537
77385;BMP280;66444;49.680;18.538;2023-02-22T18:01:55;97497.44903943977;;;5.875494997762144
77385;BMP280;66444;49.680;18.538;2023-02-22T18:07:10;97490.61415532885;;;5.865310032246635
77385;BMP280;66444;49.680;18.538;2023-02-22T18:14:40;97500.22292809564;;;5.824569937353954
77385;BMP280;66444;49.680;18.538;2023-02-22T18:20:00;97484.04943280913;;;5.753273874893784
77385;BMP280;66444;49.680;18.538;2023-02-22T18:25:11;97486.47800372493;;;5.631049399264157
77385;BMP280;66444;49.680;18.538;2023-02-22T18:30:17;97486.73772356528;;;5.52919310843572
77385;BMP280;66444;49.680;18.538;2023-02-22T18:35:23;97488.07313424068;;;5.417148499330506
77385;BMP280;66444;49.680;18.538;2023-02-22T18:40:28;97482.21707113158;;;5.223610266111791
77385;BMP280;66444;49.680;18.538;2023-02-22T18:45:33;97490.90321707024;;;5.004596339026466
77385;BMP280;66444;49.680;18.538;2023-02-22T18:57:59;97499.5628102289;;;4.785571649344638
77385;BMP280;66444;49.680;18.538;2023-02-22T19:03:04;97496.81603423189;;;4.836508584115654
77385;BMP280;66444;49.680;18.538;2023-02-22T19:08:09;97492.50953601129;;;4.8772577128373085
77385;BMP280;66444;49.680;18.538;2023-02-22T19:19:39;97502.33979928192;;;4.958754852693528
77385;BMP280;66444;49.680;18.538;2023-02-22T19:24:46;97498.14635902553;;;4.948567791702226
77385;BMP280;66444;49.680;18.538;2023-02-22T19:29:55;97506.53334139875;;;4.968941890401766
77385;BMP280;66444;49.680;18.538;2023-02-22T19:35:17;97503.59987381556;;;4.984222403308377
77385;BMP280;66444;49.680;18.538;2023-02-22T19:40:30;97500.89595182313;;;4.89763213749975
77385;BMP280;66444;49.680;18.538;2023-02-22T19:45:38;97503.16192479478;;;4.8263212437275795
77385;BMP280;66444;49.680;18.538;2023-02-22T19:50:44;97503.45895039884;;;4.811040189489722
77385;BMP280;66444;49.680;18.538;2023-02-22T19:55:51;97502.97661355823;;;4.790665369015187
77385;BMP280;66444;49.680;18.538;2023-02-22T20:00:56;97497.52193539326;;;4.755009209085256
77385;BMP280;66444;49.680;18.538;2023-02-22T20:06:02;97496.66621410173;;;4.663320631021634
77385;BMP280;66444;49.680;18.538;2023-02-22T20:11:09;97511.5026703345;;;4.6225695465225725
77385;BMP280;66444;49.680;18.538;2023-02-22T20:16:15;97506.82589191281;;;4.592005988676101
77385;BMP280;66444;49.680;18.538;2023-02-22T20:21:22;97512.0933519463;;;4.592005988676101
77385;BMP280;66444;49.680;18.538;2023-02-22T20:26:37;97507.03689133839;;;4.490125949122012
77385;BMP280;66444;49.680;18.538;2023-02-22T20:31:43;97511.0508103153;;;4.32711304295808
77385;BMP280;66444;49.680;18.538;2023-02-22T20:36:49;97499.26002708013;;;4.164094176329672
77385;BMP280;66444;49.680;18.538;2023-02-22T20:41:54;97502.37682747254;;;4.046920684305951
77385;BMP280;66444;49.680;18.538;2023-02-22T20:47:00;97507.04667976359;;;3.939933502394706
77385;BMP280;66444;49.680;18.538;2023-02-22T20:52:05;97502.5485483812;;;3.8074696254450826
77385;BMP280;66444;49.680;18.538;2023-02-22T20:57:11;97508.5640267553;;;3.6750018136575817
77385;BMP280;66444;49.680;18.538;2023-02-22T21:02:19;97500.93123425015;;;3.522149449074641
77385;BMP280;66444;49.680;18.538;2023-02-22T21:07:28;97495.71439071478;;;3.3336243179161102
77385;BMP280;66444;49.680;18.538;2023-02-22T21:12:36;97490.98054865643;;;3.1654735590331256
77385;BMP280;66444;49.680;18.538;2023-02-22T21:17:44;97490.63656083107;;;3.043178116623312
77385;BMP280;66444;49.680;18.538;2023-02-22T21:22:52;97496.03614305654;;;2.9412626868113874
77385;BMP280;66444;49.680;18.538;2023-02-22T21:28:00;97498.66274743523;;;2.9412626868113874
77385;BMP280;66444;49.680;18.538;2023-02-22T21:33:14;97493.55103917838;;;2.839344928693026
77385;BMP280;66444;49.680;18.538;2023-02-22T21:38:22;97492.75751933418;;;2.6456947737839074
77385;BMP280;66444;49.680;18.538;2023-02-22T21:43:35;97482.88602064873;;;2.5641553518828006
77385;BMP280;66444;49.680;18.538;2023-02-22T21:48:44;97482.3867830011;;;2.54377026357688
77385;BMP280;66444;49.680;18.538;2023-02-22T21:53:53;97485.07505666565;;;2.492807135358453
77385;BMP280;66444;49.680;18.538;2023-02-22T21:59:07;97475.26316132018;;;2.3603002778720112
77385;BMP280;66444;49.680;18.538;2023-02-22T22:04:23;97485.31754562542;;;2.2889488017186523
77385;BMP280;66444;49.680;18.538;2023-02-22T22:09:33;97483.81272301095;;;2.2277894855476914
77385;BMP280;66444;49.680;18.538;2023-02-22T22:14:41;97484.98511654072;;;2.115661895601079
77385;BMP280;66444;49.680;18.538;2023-02-22T22:19:49;97481.41005774109;;;2.023919044714421
77385;BMP280;66444;49.680;18.538;2023-02-22T22:25:03;97477.2770610692;;;1.9627560963854194
77385;BMP280;66444;49.680;18.538;2023-02-22T22:30:11;97466.05847359521;;;1.9066893240902574
77385;BMP280;66444;49.680;18.538;2023-02-22T22:35:20;97463.21026400509;;;1.8710101022850723
77385;BMP280;66444;49.680;18.538;2023-02-22T22:40:28;97456.40349800383;;;1.8608159865252674
77385;BMP280;66444;49.680;18.538;2023-02-22T22:45:36;97458.5214982905;;;1.8404276851564645
77385;BMP280;66444;49.680;18.538;2023-02-22T22:50:45;97460.08441093199;;;1.850621847482398
77385;BMP280;66444;49.680;18.538;2023-02-22T22:56:01;97451.15967265544;;;1.8608159865252674